sensor_id;sensor_type;location;lat;lon;timestamp;temperature;humidity
74809;DHT22;63338;39.544;2.596;2023-04-03T00:01:20;14.50;72.40
74809;DHT22;63338;39.544;2.596;2023-04-03T00:03:46;14.40;72.80
74809;DHT22;63338;39.544;2.596;2023-04-03T00:06:12;14.40;72.90
74809;DHT22;63338;39.544;2.596;2023-04-03T00:08:39;14.40;72.90
74809;DHT22;63338;39.544;2.596;2023-04-03T00:11:09;14.30;72.80
74809;DHT22;63338;39.544;2.596;2023-04-03T00:13:36;14.20;73.20
74809;DHT22;63338;39.544;2.596;2023-04-03T00:16:02;14.30;73.40
74809;DHT22;63338;39.544;2.596;2023-04-03T00:18:30;14.20;73.60
74809;DHT22;63338;39.544;2.596;2023-04-03T00:20:56;14.00;73.60
74809;DHT22;63338;39.544;2.596;2023-04-03T00:23:22;13.90;74.10
74809;DHT22;63338;39.544;2.596;2023-04-03T00:25:50;13.90;74.40
74809;DHT22;63338;39.544;2.596;2023-04-03T00:28:16;13.90;74.60
74809;DHT22;63338;39.544;2.596;2023-04-03T00:30:42;13.80;74.60
74809;DHT22;63338;39.544;2.596;2023-04-03T00:33:12;13.80;75.00
74809;DHT22;63338;39.544;2.596;2023-04-03T00:35:38;13.70;74.80
74809;DHT22;63338;39.544;2.596;2023-04-03T00:38:04;13.80;75.00
74809;DHT22;63338;39.544;2.596;2023-04-03T00:40:35;13.60;75.10
74809;DHT22;63338;39.544;2.596;2023-04-03T00:43:02;13.60;75.30
74809;DHT22;63338;39.544;2.596;2023-04-03T00:45:36;13.60;75.60
74809;DHT22;63338;39.544;2.596;2023-04-03T00:48:05;13.60;75.70
74809;DHT22;63338;39.544;2.596;2023-04-03T00:50:35;13.50;75.80
74809;DHT22;63338;39.544;2.596;2023-04-03T00:53:04;13.50;75.70
74809;DHT22;63338;39.544;2.596;2023-04-03T00:55:33;13.50;75.80
74809;DHT22;63338;39.544;2.596;2023-04-03T00:58:00;13.50;75.90
74809;DHT22;63338;39.544;2.596;2023-04-03T01:00:27;13.50;76.10
74809;DHT22;63338;39.544;2.596;2023-04-03T01:02:53;13.50;76.00
74809;DHT22;63338;39.544;2.596;2023-04-03T01:05:20;13.40;76.00
74809;DHT22;63338;39.544;2.596;2023-04-03T01:07:48;13.40;76.20
74809;DHT22;63338;39.544;2.596;2023-04-03T01:10:16;13.40;76.50
74809;DHT22;63338;39.544;2.596;2023-04-03T01:12:47;13.30;76.70
74809;DHT22;63338;39.544;2.596;2023-04-03T01:15:20;13.30;76.60
74809;DHT22;63338;39.544;2.596;2023-04-03T01:17:54;13.30;76.90
74809;DHT22;63338;39.544;2.596;2023-04-03T01:28:12;13.20;77.60
74809;DHT22;63338;39.544;2.596;2023-04-03T01:31:02;13.10;77.60
74809;DHT22;63338;39.544;2.596;2023-04-03T01:33:31;13.10;77.50
74809;DHT22;63338;39.544;2.596;2023-04-03T01:35:57;13.10;77.50
74809;DHT22;63338;39.544;2.596;2023-04-03T01:38:24;13.10;77.60
74809;DHT22;63338;39.544;2.596;2023-04-03T01:40:51;13.10;77.50
74809;DHT22;63338;39.544;2.596;2023-04-03T01:43:17;13.00;78.00
74809;DHT22;63338;39.544;2.596;2023-04-03T01:45:43;12.90;78.00
74809;DHT22;63338;39.544;2.596;2023-04-03T01:48:09;12.80;78.40
74809;DHT22;63338;39.544;2.596;2023-04-03T01:50:38;12.80;78.80
74809;DHT22;63338;39.544;2.596;2023-04-03T01:53:04;12.70;78.90
74809;DHT22;63338;39.544;2.596;2023-04-03T01:55:33;12.80;79.30
74809;DHT22;63338;39.544;2.596;2023-04-03T01:57:59;12.70;80.70
74809;DHT22;63338;39.544;2.596;2023-04-03T02:00:25;12.70;81.00
74809;DHT22;63338;39.544;2.596;2023-04-03T02:02:52;12.70;81.30
74809;DHT22;63338;39.544;2.596;2023-04-03T02:05:18;12.60;81.40
74809;DHT22;63338;39.544;2.596;2023-04-03T02:07:45;12.50;81.40
74809;DHT22;63338;39.544;2.596;2023-04-03T02:10:13;12.60;81.60
74809;DHT22;63338;39.544;2.596;2023-04-03T02:12:39;12.50;81.70
74809;DHT22;63338;39.544;2.596;2023-04-03T02:15:07;12.50;81.90
74809;DHT22;63338;39.544;2.596;2023-04-03T02:17:34;12.50;82.00
74809;DHT22;63338;39.544;2.596;2023-04-03T02:20:00;12.50;82.20
74809;DHT22;63338;39.544;2.596;2023-04-03T02:22:26;12.20;82.10
74809;DHT22;63338;39.544;2.596;2023-04-03T02:24:52;12.50;82.30
74809;DHT22;63338;39.544;2.596;2023-04-03T02:27:19;12.30;82.40
74809;DHT22;63338;39.544;2.596;2023-04-03T02:29:45;12.20;82.60
74809;DHT22;63338;39.544;2.596;2023-04-03T02:32:11;12.20;82.70
74809;DHT22;63338;39.544;2.596;2023-04-03T02:34:37;12.30;82.60
74809;DHT22;63338;39.544;2.596;2023-04-03T02:37:03;12.20;82.80
74809;DHT22;63338;39.544;2.596;2023-04-03T02:39:29;12.10;82.80
74809;DHT22;63338;39.544;2.596;2023-04-03T02:41:56;12.10;83.20
74809;DHT22;63338;39.544;2.596;2023-04-03T02:44:22;12.20;83.30
74809;DHT22;63338;39.544;2.596;2023-04-03T02:46:49;12.10;83.30
74809;DHT22;63338;39.544;2.596;2023-04-03T02:49:16;12.10;83.50
74809;DHT22;63338;39.544;2.596;2023-04-03T02:51:42;12.10;83.40
74809;DHT22;63338;39.544;2.596;2023-04-03T02:54:08;12.10;83.30
74809;DHT22;63338;39.544;2.596;2023-04-03T02:56:35;12.20;83.50
74809;DHT22;63338;39.544;2.596;2023-04-03T02:59:01;12.10;83.30
74809;DHT22;63338;39.544;2.596;2023-04-03T03:01:27;12.10;83.60
74809;DHT22;63338;39.544;2.596;2023-04-03T03:03:57;12.10;83.40
74809;DHT22;63338;39.544;2.596;2023-04-03T03:06:23;12.10;83.70
74809;DHT22;63338;39.544;2.596;2023-04-03T03:08:52;12.00;83.70
74809;DHT22;63338;39.544;2.596;2023-04-03T03:11:19;12.00;83.70
74809;DHT22;63338;39.544;2.596;2023-04-03T03:13:45;12.00;83.80
74809;DHT22;63338;39.544;2.596;2023-04-03T03:16:11;11.90;83.90
74809;DHT22;63338;39.544;2.596;2023-04-03T03:18:37;11.80;84.20
74809;DHT22;63338;39.544;2.596;2023-04-03T03:21:04;11.90;84.20
74809;DHT22;63338;39.544;2.596;2023-04-03T03:23:31;11.90;84.30
74809;DHT22;63338;39.544;2.596;2023-04-03T03:26:03;11.80;84.30
74809;DHT22;63338;39.544;2.596;2023-04-03T03:28:33;11.90;84.30
74809;DHT22;63338;39.544;2.596;2023-04-03T03:31:03;12.00;84.40
74809;DHT22;63338;39.544;2.596;2023-04-03T03:33:32;12.00;84.20
74809;DHT22;63338;39.544;2.596;2023-04-03T03:35:59;12.10;84.10
74809;DHT22;63338;39.544;2.596;2023-04-03T03:38:26;12.10;84.10
74809;DHT22;63338;39.544;2.596;2023-04-03T03:40:52;12.10;83.90
74809;DHT22;63338;39.544;2.596;2023-04-03T03:43:19;12.10;83.80
74809;DHT22;63338;39.544;2.596;2023-04-03T03:45:50;12.10;83.80
74809;DHT22;63338;39.544;2.596;2023-04-03T03:48:16;12.10;83.70
74809;DHT22;63338;39.544;2.596;2023-04-03T03:50:43;12.10;83.90
74809;DHT22;63338;39.544;2.596;2023-04-03T03:53:09;12.10;83.90
74809;DHT22;63338;39.544;2.596;2023-04-03T03:55:35;12.10;83.90
74809;DHT22;63338;39.544;2.596;2023-04-03T03:58:01;12.10;83.90
74809;DHT22;63338;39.544;2.596;2023-04-03T04:00:29;12.00;83.90
74809;DHT22;63338;39.544;2.596;2023-04-03T04:02:56;12.10;83.90
74809;DHT22;63338;39.544;2.596;2023-04-03T04:05:22;12.00;84.00
74809;DHT22;63338;39.544;2.596;2023-04-03T04:07:48;11.90;84.10
74809;DHT22;63338;39.544;2.596;2023-04-03T04:10:14;12.00;84.30
74809;DHT22;63338;39.544;2.596;2023-04-03T04:12:40;11.90;84.10
74809;DHT22;63338;39.544;2.596;2023-04-03T04:15:07;11.90;84.20
74809;DHT22;63338;39.544;2.596;2023-04-03T04:17:33;12.00;84.00
74809;DHT22;63338;39.544;2.596;2023-04-03T04:20:01;12.00;84.10
74809;DHT22;63338;39.544;2.596;2023-04-03T04:22:28;12.00;84.20
74809;DHT22;63338;39.544;2.596;2023-04-03T04:24:54;12.00;84.30
74809;DHT22;63338;39.544;2.596;2023-04-03T04:27:20;12.00;84.20
74809;DHT22;63338;39.544;2.596;2023-04-03T04:29:46;12.00;84.10
74809;DHT22;63338;39.544;2.596;2023-04-03T04:32:12;12.00;84.20
74809;DHT22;63338;39.544;2.596;2023-04-03T04:34:38;11.90;84.30
74809;DHT22;63338;39.544;2.596;2023-04-03T04:37:04;11.90;84.30
74809;DHT22;63338;39.544;2.596;2023-04-03T04:39:30;11.80;84.50
74809;DHT22;63338;39.544;2.596;2023-04-03T04:41:56;11.80;84.40
74809;DHT22;63338;39.544;2.596;2023-04-03T04:44:22;11.80;84.50
74809;DHT22;63338;39.544;2.596;2023-04-03T04:46:48;11.80;84.40
74809;DHT22;63338;39.544;2.596;2023-04-03T04:49:15;11.80;84.70
74809;DHT22;63338;39.544;2.596;2023-04-03T04:51:42;11.70;84.80
74809;DHT22;63338;39.544;2.596;2023-04-03T04:54:08;11.70;84.80
74809;DHT22;63338;39.544;2.596;2023-04-03T04:56:34;11.60;84.90
74809;DHT22;63338;39.544;2.596;2023-04-03T04:59:01;11.60;85.10
74809;DHT22;63338;39.544;2.596;2023-04-03T05:01:27;11.60;85.00
74809;DHT22;63338;39.544;2.596;2023-04-03T05:03:53;11.50;85.20
74809;DHT22;63338;39.544;2.596;2023-04-03T05:06:19;11.50;85.20
74809;DHT22;63338;39.544;2.596;2023-04-03T05:08:45;11.60;85.40
74809;DHT22;63338;39.544;2.596;2023-04-03T05:11:11;11.50;85.50
74809;DHT22;63338;39.544;2.596;2023-04-03T05:13:37;11.50;85.50
74809;DHT22;63338;39.544;2.596;2023-04-03T05:16:03;11.60;85.70
74809;DHT22;63338;39.544;2.596;2023-04-03T05:18:30;11.60;85.60
74809;DHT22;63338;39.544;2.596;2023-04-03T05:20:56;11.60;85.80
74809;DHT22;63338;39.544;2.596;2023-04-03T05:23:24;11.80;85.80
74809;DHT22;63338;39.544;2.596;2023-04-03T05:25:53;11.80;85.90
74809;DHT22;63338;39.544;2.596;2023-04-03T05:28:19;11.70;85.90
74809;DHT22;63338;39.544;2.596;2023-04-03T05:30:56;11.90;86.00
74809;DHT22;63338;39.544;2.596;2023-04-03T05:33:23;11.80;86.00
74809;DHT22;63338;39.544;2.596;2023-04-03T05:35:49;11.80;86.00
74809;DHT22;63338;39.544;2.596;2023-04-03T05:38:15;11.90;85.80
74809;DHT22;63338;39.544;2.596;2023-04-03T05:40:42;11.90;86.10
74809;DHT22;63338;39.544;2.596;2023-04-03T05:43:08;12.00;85.90
74809;DHT22;63338;39.544;2.596;2023-04-03T05:45:35;12.00;86.00
74809;DHT22;63338;39.544;2.596;2023-04-03T05:48:01;12.10;85.90
74809;DHT22;63338;39.544;2.596;2023-04-03T05:50:28;12.10;85.90
74809;DHT22;63338;39.544;2.596;2023-04-03T05:52:56;12.20;85.90
74809;DHT22;63338;39.544;2.596;2023-04-03T05:55:23;12.20;85.90
74809;DHT22;63338;39.544;2.596;2023-04-03T05:57:49;12.40;85.80
74809;DHT22;63338;39.544;2.596;2023-04-03T06:00:16;12.60;85.80
74809;DHT22;63338;39.544;2.596;2023-04-03T06:02:45;12.80;84.20
74809;DHT22;63338;39.544;2.596;2023-04-03T06:05:11;12.90;84.00
74809;DHT22;63338;39.544;2.596;2023-04-03T06:07:38;13.00;83.80
74809;DHT22;63338;39.544;2.596;2023-04-03T06:10:05;13.00;83.80
74809;DHT22;63338;39.544;2.596;2023-04-03T06:12:32;13.20;83.40
74809;DHT22;63338;39.544;2.596;2023-04-03T06:14:58;13.30;83.40
74809;DHT22;63338;39.544;2.596;2023-04-03T06:17:27;13.30;83.20
74809;DHT22;63338;39.544;2.596;2023-04-03T06:19:53;13.50;82.90
74809;DHT22;63338;39.544;2.596;2023-04-03T06:22:19;13.60;82.80
74809;DHT22;63338;39.544;2.596;2023-04-03T06:24:45;13.60;82.70
74809;DHT22;63338;39.544;2.596;2023-04-03T06:27:12;13.70;82.70
74809;DHT22;63338;39.544;2.596;2023-04-03T06:29:40;13.70;82.60
74809;DHT22;63338;39.544;2.596;2023-04-03T06:32:06;13.90;82.30
74809;DHT22;63338;39.544;2.596;2023-04-03T06:34:33;14.10;82.30
74809;DHT22;63338;39.544;2.596;2023-04-03T06:36:59;14.10;81.50
74809;DHT22;63338;39.544;2.596;2023-04-03T06:39:25;14.30;81.20
74809;DHT22;63338;39.544;2.596;2023-04-03T06:41:52;14.30;81.10
74809;DHT22;63338;39.544;2.596;2023-04-03T06:44:18;14.40;80.70
74809;DHT22;63338;39.544;2.596;2023-04-03T06:46:44;14.50;80.30
74809;DHT22;63338;39.544;2.596;2023-04-03T06:49:12;14.70;79.80
74809;DHT22;63338;39.544;2.596;2023-04-03T06:51:39;14.70;79.40
74809;DHT22;63338;39.544;2.596;2023-04-03T06:54:07;14.90;79.70
74809;DHT22;63338;39.544;2.596;2023-04-03T06:56:34;15.10;79.40
74809;DHT22;63338;39.544;2.596;2023-04-03T06:59:00;15.10;79.00
74809;DHT22;63338;39.544;2.596;2023-04-03T07:01:28;15.30;77.80
74809;DHT22;63338;39.544;2.596;2023-04-03T07:03:55;15.30;77.40
74809;DHT22;63338;39.544;2.596;2023-04-03T07:06:21;15.40;77.40
74809;DHT22;63338;39.544;2.596;2023-04-03T07:08:48;15.40;76.90
74809;DHT22;63338;39.544;2.596;2023-04-03T07:11:17;15.60;75.80
74809;DHT22;63338;39.544;2.596;2023-04-03T07:13:43;15.70;75.40
74809;DHT22;63338;39.544;2.596;2023-04-03T07:16:12;15.80;74.40
74809;DHT22;63338;39.544;2.596;2023-04-03T07:18:38;16.00;73.80
74809;DHT22;63338;39.544;2.596;2023-04-03T07:21:05;16.10;73.90
74809;DHT22;63338;39.544;2.596;2023-04-03T07:23:31;16.40;72.70
74809;DHT22;63338;39.544;2.596;2023-04-03T07:25:57;16.50;71.80
74809;DHT22;63338;39.544;2.596;2023-04-03T07:28:24;16.70;71.10
74809;DHT22;63338;39.544;2.596;2023-04-03T07:30:53;16.90;71.00
74809;DHT22;63338;39.544;2.596;2023-04-03T07:33:24;17.10;70.30
74809;DHT22;63338;39.544;2.596;2023-04-03T07:35:50;17.30;68.90
74809;DHT22;63338;39.544;2.596;2023-04-03T07:38:16;17.40;68.60
74809;DHT22;63338;39.544;2.596;2023-04-03T07:40:47;17.60;68.20
74809;DHT22;63338;39.544;2.596;2023-04-03T07:43:15;17.80;67.40
74809;DHT22;63338;39.544;2.596;2023-04-03T07:45:41;18.20;65.80
74809;DHT22;63338;39.544;2.596;2023-04-03T07:48:11;18.40;65.10
74809;DHT22;63338;39.544;2.596;2023-04-03T07:50:40;18.60;63.30
74809;DHT22;63338;39.544;2.596;2023-04-03T07:53:06;19.10;62.90
74809;DHT22;63338;39.544;2.596;2023-04-03T07:55:33;19.60;63.10
74809;DHT22;63338;39.544;2.596;2023-04-03T07:58:02;20.10;61.30
74809;DHT22;63338;39.544;2.596;2023-04-03T08:00:28;20.80;60.40
74809;DHT22;63338;39.544;2.596;2023-04-03T08:02:55;21.50;58.70
74809;DHT22;63338;39.544;2.596;2023-04-03T08:05:24;22.10;56.80
74809;DHT22;63338;39.544;2.596;2023-04-03T08:07:51;22.60;55.90
74809;DHT22;63338;39.544;2.596;2023-04-03T08:10:17;23.00;54.90
74809;DHT22;63338;39.544;2.596;2023-04-03T08:12:46;23.30;54.20
74809;DHT22;63338;39.544;2.596;2023-04-03T08:15:12;23.70;53.40
74809;DHT22;63338;39.544;2.596;2023-04-03T08:17:39;23.90;52.90
74809;DHT22;63338;39.544;2.596;2023-04-03T08:20:06;24.00;52.10
74809;DHT22;63338;39.544;2.596;2023-04-03T08:22:33;24.30;52.00
74809;DHT22;63338;39.544;2.596;2023-04-03T08:25:02;24.30;50.60
74809;DHT22;63338;39.544;2.596;2023-04-03T08:27:28;24.50;51.40
74809;DHT22;63338;39.544;2.596;2023-04-03T08:29:57;24.60;51.20
74809;DHT22;63338;39.544;2.596;2023-04-03T08:32:24;24.80;51.10
74809;DHT22;63338;39.544;2.596;2023-04-03T08:34:51;25.00;50.90
74809;DHT22;63338;39.544;2.596;2023-04-03T08:37:18;25.10;51.00
74809;DHT22;63338;39.544;2.596;2023-04-03T08:39:45;25.30;50.40
74809;DHT22;63338;39.544;2.596;2023-04-03T08:45:12;25.70;50.40
74809;DHT22;63338;39.544;2.596;2023-04-03T08:47:57;25.90;50.00
74809;DHT22;63338;39.544;2.596;2023-04-03T08:50:51;26.00;50.20
74809;DHT22;63338;39.544;2.596;2023-04-03T08:53:25;26.00;49.70
74809;DHT22;63338;39.544;2.596;2023-04-03T08:55:55;26.00;49.20
74809;DHT22;63338;39.544;2.596;2023-04-03T08:58:30;26.00;48.40
74809;DHT22;63338;39.544;2.596;2023-04-03T09:01:05;26.10;48.10
74809;DHT22;63338;39.544;2.596;2023-04-03T09:03:34;26.10;48.40
74809;DHT22;63338;39.544;2.596;2023-04-03T09:06:05;26.10;48.20
74809;DHT22;63338;39.544;2.596;2023-04-03T09:14:30;26.40;47.50
74809;DHT22;63338;39.544;2.596;2023-04-03T09:17:42;26.50;46.80
74809;DHT22;63338;39.544;2.596;2023-04-03T09:22:55;26.60;47.60
74809;DHT22;63338;39.544;2.596;2023-04-03T09:25:31;26.60;47.60
74809;DHT22;63338;39.544;2.596;2023-04-03T09:28:00;26.80;47.40
74809;DHT22;63338;39.544;2.596;2023-04-03T09:30:29;26.90;47.00
74809;DHT22;63338;39.544;2.596;2023-04-03T09:33:01;26.90;47.90
74809;DHT22;63338;39.544;2.596;2023-04-03T09:35:29;27.00;47.30
74809;DHT22;63338;39.544;2.596;2023-04-03T09:38:13;27.10;46.70
74809;DHT22;63338;39.544;2.596;2023-04-03T09:40:43;27.20;47.20
74809;DHT22;63338;39.544;2.596;2023-04-03T09:45:47;27.50;47.10
74809;DHT22;63338;39.544;2.596;2023-04-03T09:53:41;26.70;47.60
74809;DHT22;63338;39.544;2.596;2023-04-03T09:59:06;26.00;50.00
74809;DHT22;63338;39.544;2.596;2023-04-03T10:01:38;26.10;49.10
74809;DHT22;63338;39.544;2.596;2023-04-03T10:04:15;26.50;48.30
74809;DHT22;63338;39.544;2.596;2023-04-03T10:06:53;26.30;48.40
74809;DHT22;63338;39.544;2.596;2023-04-03T10:09:31;26.00;48.90
74809;DHT22;63338;39.544;2.596;2023-04-03T10:12:06;25.60;49.50
74809;DHT22;63338;39.544;2.596;2023-04-03T10:14:35;25.70;50.10
74809;DHT22;63338;39.544;2.596;2023-04-03T10:17:37;25.80;50.10
74809;DHT22;63338;39.544;2.596;2023-04-03T10:22:49;25.00;50.40
74809;DHT22;63338;39.544;2.596;2023-04-03T10:44:28;20.80;59.10
74809;DHT22;63338;39.544;2.596;2023-04-03T10:47:13;21.50;56.80
74809;DHT22;63338;39.544;2.596;2023-04-03T10:57:55;21.50;56.90
74809;DHT22;63338;39.544;2.596;2023-04-03T11:00:38;21.70;56.90
74809;DHT22;63338;39.544;2.596;2023-04-03T11:03:27;22.10;56.30
74809;DHT22;63338;39.544;2.596;2023-04-03T11:06:07;22.60;55.20
74809;DHT22;63338;39.544;2.596;2023-04-03T11:08:53;23.10;54.50
74809;DHT22;63338;39.544;2.596;2023-04-03T11:11:29;23.40;54.10
74809;DHT22;63338;39.544;2.596;2023-04-03T11:16:30;24.00;52.70
74809;DHT22;63338;39.544;2.596;2023-04-03T11:19:17;24.30;52.10
74809;DHT22;63338;39.544;2.596;2023-04-03T11:22:04;24.50;52.10
74809;DHT22;63338;39.544;2.596;2023-04-03T11:24:33;24.40;51.60
74809;DHT22;63338;39.544;2.596;2023-04-03T11:27:04;24.50;51.70
74809;DHT22;63338;39.544;2.596;2023-04-03T11:29:36;24.00;52.60
74809;DHT22;63338;39.544;2.596;2023-04-03T11:34:45;23.60;53.10
74809;DHT22;63338;39.544;2.596;2023-04-03T11:43:06;23.50;54.50
74809;DHT22;63338;39.544;2.596;2023-04-03T11:46:04;23.40;54.60
74809;DHT22;63338;39.544;2.596;2023-04-03T11:50:58;23.30;55.10
74809;DHT22;63338;39.544;2.596;2023-04-03T11:53:28;23.40;54.90
74809;DHT22;63338;39.544;2.596;2023-04-03T12:02:14;23.00;55.40
74809;DHT22;63338;39.544;2.596;2023-04-03T12:05:27;22.40;56.50
74809;DHT22;63338;39.544;2.596;2023-04-03T12:24:03;21.30;58.90
74809;DHT22;63338;39.544;2.596;2023-04-03T12:45:56;19.40;63.30
74809;DHT22;63338;39.544;2.596;2023-04-03T12:48:30;19.30;64.40
74809;DHT22;63338;39.544;2.596;2023-04-03T12:50:59;19.20;65.10
74809;DHT22;63338;39.544;2.596;2023-04-03T12:53:32;19.10;65.00
74809;DHT22;63338;39.544;2.596;2023-04-03T12:56:26;18.90;65.40
74809;DHT22;63338;39.544;2.596;2023-04-03T12:58:55;18.80;66.60
74809;DHT22;63338;39.544;2.596;2023-04-03T13:01:24;18.80;67.00
74809;DHT22;63338;39.544;2.596;2023-04-03T13:03:53;18.70;66.90
74809;DHT22;63338;39.544;2.596;2023-04-03T13:06:23;18.70;67.20
74809;DHT22;63338;39.544;2.596;2023-04-03T13:09:00;18.60;67.70
74809;DHT22;63338;39.544;2.596;2023-04-03T13:11:32;18.60;68.30
74809;DHT22;63338;39.544;2.596;2023-04-03T13:14:12;18.80;67.50
74809;DHT22;63338;39.544;2.596;2023-04-03T13:16:40;18.80;67.10
74809;DHT22;63338;39.544;2.596;2023-04-03T13:19:16;18.40;67.00
74809;DHT22;63338;39.544;2.596;2023-04-03T13:21:43;18.40;67.80
74809;DHT22;63338;39.544;2.596;2023-04-03T13:24:13;18.10;69.20
74809;DHT22;63338;39.544;2.596;2023-04-03T13:26:39;18.10;69.50
74809;DHT22;63338;39.544;2.596;2023-04-03T13:29:21;18.00;70.30
74809;DHT22;63338;39.544;2.596;2023-04-03T13:31:53;18.00;70.50
74809;DHT22;63338;39.544;2.596;2023-04-03T13:34:20;17.80;70.90
74809;DHT22;63338;39.544;2.596;2023-04-03T13:41:52;17.80;71.90
74809;DHT22;63338;39.544;2.596;2023-04-03T13:46:57;18.00;70.30
74809;DHT22;63338;39.544;2.596;2023-04-03T13:49:31;17.80;71.50
74809;DHT22;63338;39.544;2.596;2023-04-03T13:51:58;17.60;71.60
74809;DHT22;63338;39.544;2.596;2023-04-03T13:54:45;17.40;72.20
74809;DHT22;63338;39.544;2.596;2023-04-03T13:57:15;17.30;73.80
74809;DHT22;63338;39.544;2.596;2023-04-03T13:59:42;17.20;73.90
74809;DHT22;63338;39.544;2.596;2023-04-03T14:02:22;17.10;73.20
74809;DHT22;63338;39.544;2.596;2023-04-03T14:04:53;17.00;72.80
74809;DHT22;63338;39.544;2.596;2023-04-03T14:07:24;16.90;71.90
74809;DHT22;63338;39.544;2.596;2023-04-03T14:09:51;17.00;72.70
74809;DHT22;63338;39.544;2.596;2023-04-03T14:12:33;16.90;72.10
74809;DHT22;63338;39.544;2.596;2023-04-03T14:15:00;16.90;72.90
74809;DHT22;63338;39.544;2.596;2023-04-03T14:17:28;16.80;72.10
74809;DHT22;63338;39.544;2.596;2023-04-03T14:19:57;16.90;73.20
74809;DHT22;63338;39.544;2.596;2023-04-03T14:22:29;16.90;72.90
74809;DHT22;63338;39.544;2.596;2023-04-03T14:24:56;16.90;69.90
74809;DHT22;63338;39.544;2.596;2023-04-03T14:27:25;16.90;68.70
74809;DHT22;63338;39.544;2.596;2023-04-03T14:29:54;16.90;67.00
74809;DHT22;63338;39.544;2.596;2023-04-03T14:32:21;17.00;68.40
74809;DHT22;63338;39.544;2.596;2023-04-03T14:34:50;17.10;67.40
74809;DHT22;63338;39.544;2.596;2023-04-03T14:37:20;17.00;67.30
74809;DHT22;63338;39.544;2.596;2023-04-03T14:39:46;17.20;67.60
74809;DHT22;63338;39.544;2.596;2023-04-03T14:42:17;17.00;65.10
74809;DHT22;63338;39.544;2.596;2023-04-03T14:44:44;17.00;66.00
74809;DHT22;63338;39.544;2.596;2023-04-03T14:47:16;17.00;66.10
74809;DHT22;63338;39.544;2.596;2023-04-03T14:49:44;17.00;66.40
74809;DHT22;63338;39.544;2.596;2023-04-03T14:54:47;17.00;67.40
74809;DHT22;63338;39.544;2.596;2023-04-03T14:57:15;17.00;68.20
74809;DHT22;63338;39.544;2.596;2023-04-03T14:59:43;16.90;68.70
74809;DHT22;63338;39.544;2.596;2023-04-03T15:04:57;17.00;68.90
74809;DHT22;63338;39.544;2.596;2023-04-03T15:07:27;17.00;68.50
74809;DHT22;63338;39.544;2.596;2023-04-03T15:09:53;17.00;70.00
74809;DHT22;63338;39.544;2.596;2023-04-03T15:12:23;17.10;72.90
74809;DHT22;63338;39.544;2.596;2023-04-03T15:14:52;17.00;73.40
74809;DHT22;63338;39.544;2.596;2023-04-03T15:17:21;17.00;71.80
74809;DHT22;63338;39.544;2.596;2023-04-03T15:19:48;16.90;72.10
74809;DHT22;63338;39.544;2.596;2023-04-03T15:22:16;16.90;71.90
74809;DHT22;63338;39.544;2.596;2023-04-03T15:24:46;17.00;69.00
74809;DHT22;63338;39.544;2.596;2023-04-03T15:27:13;17.00;66.80
74809;DHT22;63338;39.544;2.596;2023-04-03T15:29:41;17.10;65.90
74809;DHT22;63338;39.544;2.596;2023-04-03T15:32:08;17.20;66.00
74809;DHT22;63338;39.544;2.596;2023-04-03T15:34:36;17.40;66.00
74809;DHT22;63338;39.544;2.596;2023-04-03T15:37:02;17.50;65.20
74809;DHT22;63338;39.544;2.596;2023-04-03T15:39:28;17.40;64.20
74809;DHT22;63338;39.544;2.596;2023-04-03T15:41:54;17.40;64.30
74809;DHT22;63338;39.544;2.596;2023-04-03T15:44:21;17.30;64.80
74809;DHT22;63338;39.544;2.596;2023-04-03T15:46:48;17.30;65.00
74809;DHT22;63338;39.544;2.596;2023-04-03T15:49:16;17.30;64.40
74809;DHT22;63338;39.544;2.596;2023-04-03T15:51:42;17.40;65.40
74809;DHT22;63338;39.544;2.596;2023-04-03T15:54:08;17.40;65.30
74809;DHT22;63338;39.544;2.596;2023-04-03T15:56:35;17.50;65.10
74809;DHT22;63338;39.544;2.596;2023-04-03T15:59:01;17.50;64.70
74809;DHT22;63338;39.544;2.596;2023-04-03T16:01:27;17.60;65.40
74809;DHT22;63338;39.544;2.596;2023-04-03T16:03:53;17.40;65.30
74809;DHT22;63338;39.544;2.596;2023-04-03T16:06:19;17.40;65.00
74809;DHT22;63338;39.544;2.596;2023-04-03T16:08:47;17.30;65.10
74809;DHT22;63338;39.544;2.596;2023-04-03T16:11:13;17.30;65.70
74809;DHT22;63338;39.544;2.596;2023-04-03T16:13:40;17.40;66.10
74809;DHT22;63338;39.544;2.596;2023-04-03T16:16:06;17.30;66.00
74809;DHT22;63338;39.544;2.596;2023-04-03T16:18:34;17.30;65.30
74809;DHT22;63338;39.544;2.596;2023-04-03T16:21:01;17.40;64.70
74809;DHT22;63338;39.544;2.596;2023-04-03T16:23:27;17.30;64.20
74809;DHT22;63338;39.544;2.596;2023-04-03T16:25:54;17.30;64.40
74809;DHT22;63338;39.544;2.596;2023-04-03T16:28:27;17.30;64.40
74809;DHT22;63338;39.544;2.596;2023-04-03T16:30:57;17.20;64.60
74809;DHT22;63338;39.544;2.596;2023-04-03T16:33:24;17.30;64.70
74809;DHT22;63338;39.544;2.596;2023-04-03T16:35:53;17.30;64.00
74809;DHT22;63338;39.544;2.596;2023-04-03T16:38:19;17.20;63.60
74809;DHT22;63338;39.544;2.596;2023-04-03T16:40:48;17.20;63.80
74809;DHT22;63338;39.544;2.596;2023-04-03T16:43:15;17.10;63.00
74809;DHT22;63338;39.544;2.596;2023-04-03T16:45:42;17.10;63.10
74809;DHT22;63338;39.544;2.596;2023-04-03T16:48:08;17.20;63.40
74809;DHT22;63338;39.544;2.596;2023-04-03T16:50:34;17.00;62.80
74809;DHT22;63338;39.544;2.596;2023-04-03T16:53:01;17.00;63.20
74809;DHT22;63338;39.544;2.596;2023-04-03T16:55:32;16.90;64.50
74809;DHT22;63338;39.544;2.596;2023-04-03T16:57:58;17.00;65.00
74809;DHT22;63338;39.544;2.596;2023-04-03T17:00:24;16.90;64.80
74809;DHT22;63338;39.544;2.596;2023-04-03T17:02:50;17.00;65.10
74809;DHT22;63338;39.544;2.596;2023-04-03T17:05:16;16.90;66.30
74809;DHT22;63338;39.544;2.596;2023-04-03T17:07:43;16.90;65.80
74809;DHT22;63338;39.544;2.596;2023-04-03T17:10:09;17.00;65.20
74809;DHT22;63338;39.544;2.596;2023-04-03T17:12:36;17.10;64.30
74809;DHT22;63338;39.544;2.596;2023-04-03T17:15:03;17.10;65.00
74809;DHT22;63338;39.544;2.596;2023-04-03T17:17:29;17.10;65.20
74809;DHT22;63338;39.544;2.596;2023-04-03T17:19:56;17.10;65.00
74809;DHT22;63338;39.544;2.596;2023-04-03T17:22:22;17.00;65.40
74809;DHT22;63338;39.544;2.596;2023-04-03T17:24:49;17.10;66.10
74809;DHT22;63338;39.544;2.596;2023-04-03T17:27:15;17.10;66.40
74809;DHT22;63338;39.544;2.596;2023-04-03T17:29:41;17.00;66.10
74809;DHT22;63338;39.544;2.596;2023-04-03T17:32:07;17.00;66.80
74809;DHT22;63338;39.544;2.596;2023-04-03T17:34:33;17.00;66.50
74809;DHT22;63338;39.544;2.596;2023-04-03T17:37:02;16.90;66.10
74809;DHT22;63338;39.544;2.596;2023-04-03T17:39:28;16.90;67.20
74809;DHT22;63338;39.544;2.596;2023-04-03T17:41:53;16.90;67.80
74809;DHT22;63338;39.544;2.596;2023-04-03T17:44:21;16.80;67.10
74809;DHT22;63338;39.544;2.596;2023-04-03T17:46:47;16.80;68.20
74809;DHT22;63338;39.544;2.596;2023-04-03T17:49:13;16.70;68.80